• Join FlightAware (Why Join?)
  • Login
  • US Flag 
01:15PM EDT


 

Airport Tracker/Info


-or-


 

Live Flight TrackerFlight Track Log ✈ BJS542 ✈ 30-Apr-2013 ✈ KLUK - KPDK

Flight Track Log - Related Links

Times and Time Zones

All times are in EDT time to prevent confusion due to time zone crossing. See the BJS542 flight status page for this flight to view local times or setup timezone preferences in your user account.

Time Position Orientation Groundspeed Altitude Reporting Facility
EDT Latitude Longitude Course Direction KTS MPH feet Rate Location/Type
02:15PM 39.0500 -84.4333 192° South 204 235 2,500  Level Cincinnati TRACON
02:16PM 38.9833 -84.4667 201° Southwest 250 288 6,600 3,480 Climbing Cincinnati TRACON
02:18PM 38.8256 -84.5336 198° South 329 379 13,000 2,100 Climbing Indianapolis Center
02:19PM 38.7325 -84.5722 198° South 347 399 13,000 2,040 Level Indianapolis Center
02:20PM 38.6319 -84.5714 180° South 361 415 17,300 3,540 Climbing Indianapolis Center
02:21PM 38.5306 -84.5369 165° South 376 433 20,300 2,760 Climbing Indianapolis Center
02:22PM 38.4200 -84.5072 168° South 404 465 23,000 2,640 Climbing Indianapolis Center
02:23PM 38.3014 -84.4986 177° South 420 483 25,800 2,520 Climbing Indianapolis Center
02:24PM 38.1800 -84.4883 176° South 434 499 28,300 2,340 Climbing Indianapolis Center
02:25PM 38.0344 -84.4789 177° South 445 512 30,600 1,980 Climbing Indianapolis Center
02:26PM 37.9078 -84.4569 172° South 458 527 32,400 1,620 Climbing Indianapolis Center
02:27PM 37.7822 -84.4194 167° South 464 534 34,000 1,200 Climbing Indianapolis Center
02:28PM 37.6544 -84.3847 168° South 468 539 35,000 480 Climbing Indianapolis Center
02:29PM 37.5306 -84.3467 166° South 460 529 35,000  Level Indianapolis Center
02:30PM 37.3839 -84.3039 167° South 463 533 35,000  Level Indianapolis Center
02:31PM 37.2572 -84.2711 168° South 462 532 35,000  Level Indianapolis Center
02:32PM 37.1328 -84.2344 167° South 461 531 35,000  Level Indianapolis Center
02:33PM 37.0075 -84.2003 168° South 462 532 35,000  Level Indianapolis Center
02:34PM 36.8814 -84.1644 167° South 463 533 35,000  Level Indianapolis Center
02:35PM 36.7553 -84.1294 167° South 464 534 35,000  Level Indianapolis Center
02:36PM 36.6103 -84.0886 167° South 460 529 35,000  Level Indianapolis Center
02:37PM 36.5672 -84.0800 171° South 468 539 35,000  Level Atlanta Center
02:38PM 36.4544 -84.0492 168° South 468 539 35,000 -300 Level Atlanta Center
02:39PM 36.3294 -84.0131 167° South 468 539 34,500 -780 Descending Atlanta Center
02:40PM 36.2022 -83.9769 167° South 468 539 33,500 -840 Descending Atlanta Center
02:41PM 36.0769 -83.9436 168° South 468 539 32,900 -780 Descending Atlanta Center
02:42PM 35.9478 -83.9081 167° South 468 539 32,000 -900 Descending Atlanta Center
02:43PM 35.8203 -83.8747 168° South 468 539 31,100 -1,500 Descending Atlanta Center
02:44PM 35.6869 -83.8494 171° South 473 544 29,000 -2,100 Descending Atlanta Center
02:45PM 35.5553 -83.8217 170° South 478 550 27,000 -2,040 Descending Atlanta Center
02:46PM 35.4300 -83.7967 171° South 478 550 25,000 -1,800 Descending Atlanta Center
02:47PM 35.3069 -83.7689 170° South 468 539 23,400 -1,500 Descending Atlanta Center
02:48PM 35.1881 -83.7464 171° South 450 518 22,000 -1,440 Descending Atlanta Center
02:49PM 35.0711 -83.7189 169° South 439 505 20,600 -1,440 Descending Atlanta Center
02:50PM 34.9583 -83.7322 186° South 427 491 19,200 -1,440 Descending Atlanta Center
02:51PM 34.8522 -83.7831 201° Southwest 404 465 17,800 -1,200 Descending Atlanta Center
02:52PM 34.7478 -83.8417 205° Southwest 417 480 16,800 -1,500 Descending Atlanta Center
02:53PM 34.6478 -83.8975 205° Southwest 412 474 14,900 -2,040 Descending Atlanta Center
02:54PM 34.5497 -83.9481 203° Southwest 398 458 12,800 -1,980 Descending Atlanta Center
02:55PM 34.4622 -83.9961 204° Southwest 364 419 11,000 -1,800 Descending Atlanta Center
02:56PM 34.3850 -84.0389 205° Southwest 325 374 9,300 -1,500 Descending Atlanta Center
02:57PM 34.3036 -84.0792 202° Southwest 303 349 8,000 -780 Descending Atlanta Center
02:58PM 34.2472 -84.1092 204° Southwest 256 295 7,800 -660 Descending Atlanta Center
02:59PM 34.1950 -84.1367 204° Southwest 212 244 6,700 -1,200 Descending Atlanta Center
03:00PM 34.1469 -84.1617 203° Southwest 199 229 5,500 -900 Descending Atlanta Center
03:01PM 34.0989 -84.1892 205° Southwest 194 223 5,000 -660 Descending Atlanta Center
03:02PM 34.0508 -84.2119 201° Southwest 194 223 4,200 -960 Descending Atlanta Center
03:03PM 34.0028 -84.2342 201° Southwest 189 217 3,100 -660 Descending Atlanta Center
03:04PM 33.9631 -84.2617 210° Southwest 181 208 2,900 -480 Descending Atlanta Center
03:05PM 33.9297 -84.2792 204° Southwest 160 184 2,200 -720 Descending Atlanta Center
03:07PM 33.8756 -84.3020 209° Southwest  Level Estimated
03:14PM 33.8756 -84.3020 209° Southwest  Level Estimated